sensor_id;sensor_type;location;lat;lon;timestamp;temperature;humidity
10030;DHT22;5055;52.054;8.524;2023-05-23T00:00:03;14.30;97.00
10030;DHT22;5055;52.054;8.524;2023-05-23T00:02:34;14.20;97.00
10030;DHT22;5055;52.054;8.524;2023-05-23T00:05:05;14.20;97.00
10030;DHT22;5055;52.054;8.524;2023-05-23T00:07:33;14.10;97.00
10030;DHT22;5055;52.054;8.524;2023-05-23T00:10:02;14.10;97.00
10030;DHT22;5055;52.054;8.524;2023-05-23T00:12:31;14.10;97.00
10030;DHT22;5055;52.054;8.524;2023-05-23T00:14:59;14.00;97.00
10030;DHT22;5055;52.054;8.524;2023-05-23T00:17:28;14.00;97.00
10030;DHT22;5055;52.054;8.524;2023-05-23T00:19:58;14.00;97.00
10030;DHT22;5055;52.054;8.524;2023-05-23T00:22:27;13.90;97.00
10030;DHT22;5055;52.054;8.524;2023-05-23T00:24:56;13.90;97.00
10030;DHT22;5055;52.054;8.524;2023-05-23T00:27:28;13.80;97.00
10030;DHT22;5055;52.054;8.524;2023-05-23T00:29:56;13.80;97.00
10030;DHT22;5055;52.054;8.524;2023-05-23T00:32:24;13.70;97.00
10030;DHT22;5055;52.054;8.524;2023-05-23T00:34:53;13.70;97.00
10030;DHT22;5055;52.054;8.524;2023-05-23T00:37:23;13.70;97.00
10030;DHT22;5055;52.054;8.524;2023-05-23T00:39:51;13.70;97.00
10030;DHT22;5055;52.054;8.524;2023-05-23T00:42:20;13.80;97.00
10030;DHT22;5055;52.054;8.524;2023-05-23T00:44:48;13.80;97.00
10030;DHT22;5055;52.054;8.524;2023-05-23T00:47:17;13.80;97.00
10030;DHT22;5055;52.054;8.524;2023-05-23T00:49:45;13.80;97.00
10030;DHT22;5055;52.054;8.524;2023-05-23T00:52:14;13.90;97.00
10030;DHT22;5055;52.054;8.524;2023-05-23T00:54:44;13.90;97.00
10030;DHT22;5055;52.054;8.524;2023-05-23T00:57:15;13.90;97.00
10030;DHT22;5055;52.054;8.524;2023-05-23T00:59:44;14.00;97.00
10030;DHT22;5055;52.054;8.524;2023-05-23T01:02:13;14.00;97.00
10030;DHT22;5055;52.054;8.524;2023-05-23T01:04:43;14.00;97.00
10030;DHT22;5055;52.054;8.524;2023-05-23T01:07:11;14.10;97.00
10030;DHT22;5055;52.054;8.524;2023-05-23T01:09:40;14.10;97.00
10030;DHT22;5055;52.054;8.524;2023-05-23T01:12:18;14.10;97.00
10030;DHT22;5055;52.054;8.524;2023-05-23T01:14:53;14.10;97.00
10030;DHT22;5055;52.054;8.524;2023-05-23T01:17:28;14.20;97.00
10030;DHT22;5055;52.054;8.524;2023-05-23T01:20:01;14.20;97.00
10030;DHT22;5055;52.054;8.524;2023-05-23T01:22:45;14.20;97.00
10030;DHT22;5055;52.054;8.524;2023-05-23T01:25:28;14.20;97.00
10030;DHT22;5055;52.054;8.524;2023-05-23T01:28:05;14.20;97.00
10030;DHT22;5055;52.054;8.524;2023-05-23T01:30:38;14.30;97.00
10030;DHT22;5055;52.054;8.524;2023-05-23T01:33:07;14.30;97.00
10030;DHT22;5055;52.054;8.524;2023-05-23T01:35:38;14.30;97.00
10030;DHT22;5055;52.054;8.524;2023-05-23T01:38:07;14.30;97.00
10030;DHT22;5055;52.054;8.524;2023-05-23T01:40:37;14.40;97.00
10030;DHT22;5055;52.054;8.524;2023-05-23T01:43:07;14.30;97.00
10030;DHT22;5055;52.054;8.524;2023-05-23T01:45:35;14.40;97.00
10030;DHT22;5055;52.054;8.524;2023-05-23T01:48:05;14.40;97.00
10030;DHT22;5055;52.054;8.524;2023-05-23T01:50:34;14.40;97.00
10030;DHT22;5055;52.054;8.524;2023-05-23T01:53:02;14.40;97.00
10030;DHT22;5055;52.054;8.524;2023-05-23T01:55:31;14.40;97.00
10030;DHT22;5055;52.054;8.524;2023-05-23T01:58:00;14.40;97.00
10030;DHT22;5055;52.054;8.524;2023-05-23T02:00:31;14.30;97.00
10030;DHT22;5055;52.054;8.524;2023-05-23T02:03:00;14.30;97.00
10030;DHT22;5055;52.054;8.524;2023-05-23T02:05:28;14.20;97.00
10030;DHT22;5055;52.054;8.524;2023-05-23T02:07:57;14.20;97.00
10030;DHT22;5055;52.054;8.524;2023-05-23T02:10:26;14.20;97.00
10030;DHT22;5055;52.054;8.524;2023-05-23T02:12:54;14.10;97.00
10030;DHT22;5055;52.054;8.524;2023-05-23T02:15:23;14.00;97.00
10030;DHT22;5055;52.054;8.524;2023-05-23T02:17:52;14.00;97.00
10030;DHT22;5055;52.054;8.524;2023-05-23T02:20:27;14.00;97.00
10030;DHT22;5055;52.054;8.524;2023-05-23T02:22:55;14.00;97.00
10030;DHT22;5055;52.054;8.524;2023-05-23T02:25:24;13.90;97.00
10030;DHT22;5055;52.054;8.524;2023-05-23T02:27:52;13.90;97.00
10030;DHT22;5055;52.054;8.524;2023-05-23T02:30:21;13.90;97.00
10030;DHT22;5055;52.054;8.524;2023-05-23T02:32:53;13.80;97.00
10030;DHT22;5055;52.054;8.524;2023-05-23T02:35:23;13.80;97.00
10030;DHT22;5055;52.054;8.524;2023-05-23T02:37:52;13.80;97.00
10030;DHT22;5055;52.054;8.524;2023-05-23T02:40:20;13.80;97.00
10030;DHT22;5055;52.054;8.524;2023-05-23T02:42:48;13.80;97.00
10030;DHT22;5055;52.054;8.524;2023-05-23T02:45:17;13.80;97.00
10030;DHT22;5055;52.054;8.524;2023-05-23T02:47:46;13.80;97.00
10030;DHT22;5055;52.054;8.524;2023-05-23T02:50:16;13.70;97.00
10030;DHT22;5055;52.054;8.524;2023-05-23T02:52:44;13.70;97.00
10030;DHT22;5055;52.054;8.524;2023-05-23T02:55:13;13.70;97.00
10030;DHT22;5055;52.054;8.524;2023-05-23T02:57:41;13.70;97.00
10030;DHT22;5055;52.054;8.524;2023-05-23T03:00:11;13.70;97.00
10030;DHT22;5055;52.054;8.524;2023-05-23T03:02:41;13.70;97.00
10030;DHT22;5055;52.054;8.524;2023-05-23T03:05:09;13.70;97.00
10030;DHT22;5055;52.054;8.524;2023-05-23T03:07:39;13.70;97.00
10030;DHT22;5055;52.054;8.524;2023-05-23T03:10:08;13.70;97.00
10030;DHT22;5055;52.054;8.524;2023-05-23T03:12:37;13.70;97.00
10030;DHT22;5055;52.054;8.524;2023-05-23T03:15:06;13.70;97.00
10030;DHT22;5055;52.054;8.524;2023-05-23T03:17:35;13.70;97.00
10030;DHT22;5055;52.054;8.524;2023-05-23T03:20:04;13.70;97.00
10030;DHT22;5055;52.054;8.524;2023-05-23T03:22:35;13.70;97.00
10030;DHT22;5055;52.054;8.524;2023-05-23T03:25:06;13.70;97.00
10030;DHT22;5055;52.054;8.524;2023-05-23T03:27:38;13.70;97.00
10030;DHT22;5055;52.054;8.524;2023-05-23T03:30:12;13.80;97.00
10030;DHT22;5055;52.054;8.524;2023-05-23T03:33:22;13.80;97.00
10030;DHT22;5055;52.054;8.524;2023-05-23T03:36:52;13.70;97.00
10030;DHT22;5055;52.054;8.524;2023-05-23T03:43:40;13.70;97.00
10030;DHT22;5055;52.054;8.524;2023-05-23T03:46:57;13.70;97.00
10030;DHT22;5055;52.054;8.524;2023-05-23T03:50:11;13.70;97.00
10030;DHT22;5055;52.054;8.524;2023-05-23T03:53:10;13.70;97.00
10030;DHT22;5055;52.054;8.524;2023-05-23T03:55:50;13.70;97.00
10030;DHT22;5055;52.054;8.524;2023-05-23T04:01:55;13.60;97.00
10030;DHT22;5055;52.054;8.524;2023-05-23T04:05:15;13.60;97.00
10030;DHT22;5055;52.054;8.524;2023-05-23T04:08:12;13.60;97.00
10030;DHT22;5055;52.054;8.524;2023-05-23T04:11:56;13.60;97.00
10030;DHT22;5055;52.054;8.524;2023-05-23T04:18:44;13.70;97.00
10030;DHT22;5055;52.054;8.524;2023-05-23T04:22:06;13.70;97.00
10030;DHT22;5055;52.054;8.524;2023-05-23T04:25:02;13.80;97.00
10030;DHT22;5055;52.054;8.524;2023-05-23T04:27:51;13.80;97.00
10030;DHT22;5055;52.054;8.524;2023-05-23T04:31:00;13.80;97.00
10030;DHT22;5055;52.054;8.524;2023-05-23T04:37:44;13.90;97.00
10030;DHT22;5055;52.054;8.524;2023-05-23T04:40:54;13.90;97.00
10030;DHT22;5055;52.054;8.524;2023-05-23T04:44:13;13.90;97.00
10030;DHT22;5055;52.054;8.524;2023-05-23T04:46:53;13.90;97.00
10030;DHT22;5055;52.054;8.524;2023-05-23T04:50:02;14.00;97.00
10030;DHT22;5055;52.054;8.524;2023-05-23T05:03:43;14.00;97.00
10030;DHT22;5055;52.054;8.524;2023-05-23T05:06:50;14.00;97.00
10030;DHT22;5055;52.054;8.524;2023-05-23T05:09:55;14.00;97.00
10030;DHT22;5055;52.054;8.524;2023-05-23T05:13:16;14.00;97.00
10030;DHT22;5055;52.054;8.524;2023-05-23T05:16:01;14.00;97.00
10030;DHT22;5055;52.054;8.524;2023-05-23T05:19:27;14.10;97.00
10030;DHT22;5055;52.054;8.524;2023-05-23T05:22:42;14.10;97.00
10030;DHT22;5055;52.054;8.524;2023-05-23T05:25:49;14.10;97.00
10030;DHT22;5055;52.054;8.524;2023-05-23T05:29:01;14.10;97.00
10030;DHT22;5055;52.054;8.524;2023-05-23T05:33:00;14.10;97.00
10030;DHT22;5055;52.054;8.524;2023-05-23T05:39:44;14.20;97.00
10030;DHT22;5055;52.054;8.524;2023-05-23T05:42:56;14.20;97.00
10030;DHT22;5055;52.054;8.524;2023-05-23T05:46:27;14.20;97.00
10030;DHT22;5055;52.054;8.524;2023-05-23T05:49:55;14.20;97.00
10030;DHT22;5055;52.054;8.524;2023-05-23T05:53:14;14.20;97.00
10030;DHT22;5055;52.054;8.524;2023-05-23T05:56:36;14.20;97.00
10030;DHT22;5055;52.054;8.524;2023-05-23T05:59:54;14.20;97.00
10030;DHT22;5055;52.054;8.524;2023-05-23T06:02:51;14.20;97.00
10030;DHT22;5055;52.054;8.524;2023-05-23T06:06:14;14.20;97.00
10030;DHT22;5055;52.054;8.524;2023-05-23T06:09:30;14.20;97.00
10030;DHT22;5055;52.054;8.524;2023-05-23T06:12:54;14.20;97.00
10030;DHT22;5055;52.054;8.524;2023-05-23T06:16:15;14.20;97.00
10030;DHT22;5055;52.054;8.524;2023-05-23T06:19:31;14.20;97.00
10030;DHT22;5055;52.054;8.524;2023-05-23T06:22:12;14.10;97.00
10030;DHT22;5055;52.054;8.524;2023-05-23T06:25:00;14.00;97.00
10030;DHT22;5055;52.054;8.524;2023-05-23T06:28:01;14.00;97.00
10030;DHT22;5055;52.054;8.524;2023-05-23T06:30:43;14.00;97.00
10030;DHT22;5055;52.054;8.524;2023-05-23T06:33:49;14.00;97.00
10030;DHT22;5055;52.054;8.524;2023-05-23T06:36:47;14.00;97.00
10030;DHT22;5055;52.054;8.524;2023-05-23T06:39:43;13.90;97.00
10030;DHT22;5055;52.054;8.524;2023-05-23T06:42:28;13.90;97.00
10030;DHT22;5055;52.054;8.524;2023-05-23T06:45:28;13.90;97.00
10030;DHT22;5055;52.054;8.524;2023-05-23T06:48:18;13.90;97.00
10030;DHT22;5055;52.054;8.524;2023-05-23T06:51:10;13.90;97.00
10030;DHT22;5055;52.054;8.524;2023-05-23T06:53:57;13.80;97.00
10030;DHT22;5055;52.054;8.524;2023-05-23T06:57:08;13.80;97.00
10030;DHT22;5055;52.054;8.524;2023-05-23T07:00:15;13.70;97.00
10030;DHT22;5055;52.054;8.524;2023-05-23T07:03:21;13.70;97.00
10030;DHT22;5055;52.054;8.524;2023-05-23T07:06:12;13.60;97.00
10030;DHT22;5055;52.054;8.524;2023-05-23T07:09:16;13.60;97.00
10030;DHT22;5055;52.054;8.524;2023-05-23T07:12:03;13.50;97.00
10030;DHT22;5055;52.054;8.524;2023-05-23T07:15:01;13.50;97.00
10030;DHT22;5055;52.054;8.524;2023-05-23T07:21:14;13.40;97.00
10030;DHT22;5055;52.054;8.524;2023-05-23T07:24:24;13.30;97.00
10030;DHT22;5055;52.054;8.524;2023-05-23T07:27:15;13.20;97.00
10030;DHT22;5055;52.054;8.524;2023-05-23T07:29:56;13.10;97.00
10030;DHT22;5055;52.054;8.524;2023-05-23T07:32:59;13.10;97.00
10030;DHT22;5055;52.054;8.524;2023-05-23T07:36:03;13.10;97.00
10030;DHT22;5055;52.054;8.524;2023-05-23T07:39:13;13.10;97.00
10030;DHT22;5055;52.054;8.524;2023-05-23T07:42:01;13.00;97.00
10030;DHT22;5055;52.054;8.524;2023-05-23T07:44:53;13.00;97.00
10030;DHT22;5055;52.054;8.524;2023-05-23T07:47:57;13.10;97.00
10030;DHT22;5055;52.054;8.524;2023-05-23T07:51:20;13.10;97.00
10030;DHT22;5055;52.054;8.524;2023-05-23T07:54:10;13.00;97.00
10030;DHT22;5055;52.054;8.524;2023-05-23T07:57:18;13.00;97.00
10030;DHT22;5055;52.054;8.524;2023-05-23T08:00:12;13.00;97.00
10030;DHT22;5055;52.054;8.524;2023-05-23T08:03:10;12.90;97.00
10030;DHT22;5055;52.054;8.524;2023-05-23T08:06:13;12.90;97.00
10030;DHT22;5055;52.054;8.524;2023-05-23T08:08:55;12.90;97.00
10030;DHT22;5055;52.054;8.524;2023-05-23T08:12:00;12.90;97.00
10030;DHT22;5055;52.054;8.524;2023-05-23T08:18:11;12.90;97.00
10030;DHT22;5055;52.054;8.524;2023-05-23T08:21:02;12.90;97.00
10030;DHT22;5055;52.054;8.524;2023-05-23T08:24:30;13.00;97.00
10030;DHT22;5055;52.054;8.524;2023-05-23T08:30:47;13.00;97.00
10030;DHT22;5055;52.054;8.524;2023-05-23T08:33:54;13.10;97.00
10030;DHT22;5055;52.054;8.524;2023-05-23T08:36:55;13.10;97.00
10030;DHT22;5055;52.054;8.524;2023-05-23T08:40:04;13.00;97.00
10030;DHT22;5055;52.054;8.524;2023-05-23T08:42:49;13.00;97.00
10030;DHT22;5055;52.054;8.524;2023-05-23T08:45:34;13.10;97.00
10030;DHT22;5055;52.054;8.524;2023-05-23T08:52:01;13.00;97.00
10030;DHT22;5055;52.054;8.524;2023-05-23T08:55:00;13.00;97.00
10030;DHT22;5055;52.054;8.524;2023-05-23T08:57:50;13.00;97.00
10030;DHT22;5055;52.054;8.524;2023-05-23T09:00:58;13.00;97.00
10030;DHT22;5055;52.054;8.524;2023-05-23T09:04:22;13.00;97.00
10030;DHT22;5055;52.054;8.524;2023-05-23T09:10:54;12.90;97.00
10030;DHT22;5055;52.054;8.524;2023-05-23T09:13:52;13.00;97.00
10030;DHT22;5055;52.054;8.524;2023-05-23T09:17:28;13.00;97.00
10030;DHT22;5055;52.054;8.524;2023-05-23T09:24:38;12.90;97.00
10030;DHT22;5055;52.054;8.524;2023-05-23T09:27:34;12.90;97.00
10030;DHT22;5055;52.054;8.524;2023-05-23T09:30:57;12.80;97.00
10030;DHT22;5055;52.054;8.524;2023-05-23T09:34:12;12.80;97.00
10030;DHT22;5055;52.054;8.524;2023-05-23T09:37:11;12.80;97.00
10030;DHT22;5055;52.054;8.524;2023-05-23T09:40:22;12.80;97.00
10030;DHT22;5055;52.054;8.524;2023-05-23T09:43:36;12.80;97.00
10030;DHT22;5055;52.054;8.524;2023-05-23T09:46:29;12.80;97.00
10030;DHT22;5055;52.054;8.524;2023-05-23T09:49:29;12.80;97.00
10030;DHT22;5055;52.054;8.524;2023-05-23T09:52:13;12.80;97.00
10030;DHT22;5055;52.054;8.524;2023-05-23T09:55:36;12.80;97.00
10030;DHT22;5055;52.054;8.524;2023-05-23T10:01:50;12.70;97.00
10030;DHT22;5055;52.054;8.524;2023-05-23T10:04:39;12.70;97.00
10030;DHT22;5055;52.054;8.524;2023-05-23T10:07:31;12.70;97.00
10030;DHT22;5055;52.054;8.524;2023-05-23T10:14:02;12.70;97.00
10030;DHT22;5055;52.054;8.524;2023-05-23T10:17:14;12.80;97.00
10030;DHT22;5055;52.054;8.524;2023-05-23T10:20:15;12.80;97.00
10030;DHT22;5055;52.054;8.524;2023-05-23T10:23:19;12.90;97.00
10030;DHT22;5055;52.054;8.524;2023-05-23T10:26:15;12.90;97.00
10030;DHT22;5055;52.054;8.524;2023-05-23T10:29:21;12.90;97.00
10030;DHT22;5055;52.054;8.524;2023-05-23T10:32:13;12.90;97.00
10030;DHT22;5055;52.054;8.524;2023-05-23T10:35:16;12.80;97.00
10030;DHT22;5055;52.054;8.524;2023-05-23T10:38:15;12.80;97.00
10030;DHT22;5055;52.054;8.524;2023-05-23T10:42:14;12.60;97.00
10030;DHT22;5055;52.054;8.524;2023-05-23T10:45:46;12.40;97.00
10030;DHT22;5055;52.054;8.524;2023-05-23T10:48:57;12.30;97.00
10030;DHT22;5055;52.054;8.524;2023-05-23T10:51:56;12.40;97.00
10030;DHT22;5055;52.054;8.524;2023-05-23T10:54:55;12.50;97.00
10030;DHT22;5055;52.054;8.524;2023-05-23T11:01:00;12.90;97.00
10030;DHT22;5055;52.054;8.524;2023-05-23T11:03:53;13.10;97.00
10030;DHT22;5055;52.054;8.524;2023-05-23T11:06:53;13.20;97.00
10030;DHT22;5055;52.054;8.524;2023-05-23T11:10:17;13.40;97.00
10030;DHT22;5055;52.054;8.524;2023-05-23T11:13:17;13.60;97.00
10030;DHT22;5055;52.054;8.524;2023-05-23T11:16:43;13.90;97.00
10030;DHT22;5055;52.054;8.524;2023-05-23T11:20:46;14.10;97.00
10030;DHT22;5055;52.054;8.524;2023-05-23T11:23:58;14.40;97.00
10030;DHT22;5055;52.054;8.524;2023-05-23T11:27:11;14.70;97.00
10030;DHT22;5055;52.054;8.524;2023-05-23T11:30:12;15.00;97.00
10030;DHT22;5055;52.054;8.524;2023-05-23T11:33:07;15.10;97.00
10030;DHT22;5055;52.054;8.524;2023-05-23T11:35:44;15.30;97.00
10030;DHT22;5055;52.054;8.524;2023-05-23T11:38:20;15.30;97.00
10030;DHT22;5055;52.054;8.524;2023-05-23T11:40:59;15.10;97.00
10030;DHT22;5055;52.054;8.524;2023-05-23T11:43:27;15.00;97.00
10030;DHT22;5055;52.054;8.524;2023-05-23T11:45:56;14.80;97.00
10030;DHT22;5055;52.054;8.524;2023-05-23T11:48:26;14.70;97.00
10030;DHT22;5055;52.054;8.524;2023-05-23T11:50:55;14.60;97.00
10030;DHT22;5055;52.054;8.524;2023-05-23T11:53:26;14.40;97.00
10030;DHT22;5055;52.054;8.524;2023-05-23T11:55:56;14.20;97.00
10030;DHT22;5055;52.054;8.524;2023-05-23T11:58:28;14.20;97.00
10030;DHT22;5055;52.054;8.524;2023-05-23T12:01:00;14.20;97.00
10030;DHT22;5055;52.054;8.524;2023-05-23T12:03:30;14.20;97.00
10030;DHT22;5055;52.054;8.524;2023-05-23T12:05:59;14.20;97.00
10030;DHT22;5055;52.054;8.524;2023-05-23T12:08:29;14.50;97.00
10030;DHT22;5055;52.054;8.524;2023-05-23T12:10:59;14.70;97.00
10030;DHT22;5055;52.054;8.524;2023-05-23T12:13:28;14.80;97.00
10030;DHT22;5055;52.054;8.524;2023-05-23T12:15:58;15.00;97.00
10030;DHT22;5055;52.054;8.524;2023-05-23T12:18:30;15.10;97.00
10030;DHT22;5055;52.054;8.524;2023-05-23T12:20:59;15.40;97.00
10030;DHT22;5055;52.054;8.524;2023-05-23T12:23:29;15.50;97.00
10030;DHT22;5055;52.054;8.524;2023-05-23T12:26:04;15.70;97.00
10030;DHT22;5055;52.054;8.524;2023-05-23T12:28:35;15.70;97.00
10030;DHT22;5055;52.054;8.524;2023-05-23T12:31:11;16.30;97.00
10030;DHT22;5055;52.054;8.524;2023-05-23T12:33:42;16.90;97.00
10030;DHT22;5055;52.054;8.524;2023-05-23T12:36:12;17.20;97.00
10030;DHT22;5055;52.054;8.524;2023-05-23T12:38:42;17.40;97.00
10030;DHT22;5055;52.054;8.524;2023-05-23T12:41:14;17.80;97.00
10030;DHT22;5055;52.054;8.524;2023-05-23T12:43:49;17.90;97.00
10030;DHT22;5055;52.054;8.524;2023-05-23T12:46:18;18.00;97.00
10030;DHT22;5055;52.054;8.524;2023-05-23T12:48:48;18.20;97.00
10030;DHT22;5055;52.054;8.524;2023-05-23T12:51:17;18.20;97.00
10030;DHT22;5055;52.054;8.524;2023-05-23T12:53:46;18.50;97.00
10030;DHT22;5055;52.054;8.524;2023-05-23T12:56:15;18.90;97.00
10030;DHT22;5055;52.054;8.524;2023-05-23T12:58:45;19.00;97.00
10030;DHT22;5055;52.054;8.524;2023-05-23T13:01:14;18.80;97.00
10030;DHT22;5055;52.054;8.524;2023-05-23T13:03:43;18.60;97.00
10030;DHT22;5055;52.054;8.524;2023-05-23T13:06:13;18.40;97.00
10030;DHT22;5055;52.054;8.524;2023-05-23T13:08:42;18.20;97.00
10030;DHT22;5055;52.054;8.524;2023-05-23T13:11:11;18.30;97.00
10030;DHT22;5055;52.054;8.524;2023-05-23T13:13:41;18.90;97.00
10030;DHT22;5055;52.054;8.524;2023-05-23T13:16:09;19.10;97.00
10030;DHT22;5055;52.054;8.524;2023-05-23T13:18:39;18.90;97.00
10030;DHT22;5055;52.054;8.524;2023-05-23T13:21:07;18.90;97.00
10030;DHT22;5055;52.054;8.524;2023-05-23T13:23:38;18.70;97.00
10030;DHT22;5055;52.054;8.524;2023-05-23T13:26:07;18.40;97.00
10030;DHT22;5055;52.054;8.524;2023-05-23T13:28:37;18.50;97.00
10030;DHT22;5055;52.054;8.524;2023-05-23T13:31:06;18.40;97.00
10030;DHT22;5055;52.054;8.524;2023-05-23T13:33:34;18.40;97.00
10030;DHT22;5055;52.054;8.524;2023-05-23T13:36:04;18.30;97.00
10030;DHT22;5055;52.054;8.524;2023-05-23T13:38:33;17.90;97.00
10030;DHT22;5055;52.054;8.524;2023-05-23T13:41:03;17.80;97.00
10030;DHT22;5055;52.054;8.524;2023-05-23T13:44:11;17.80;97.00
10030;DHT22;5055;52.054;8.524;2023-05-23T13:47:05;17.70;97.00
10030;DHT22;5055;52.054;8.524;2023-05-23T13:49:39;17.60;97.00
10030;DHT22;5055;52.054;8.524;2023-05-23T13:52:08;17.50;97.00
10030;DHT22;5055;52.054;8.524;2023-05-23T13:54:36;18.00;97.00
10030;DHT22;5055;52.054;8.524;2023-05-23T13:57:07;18.40;97.00
10030;DHT22;5055;52.054;8.524;2023-05-23T13:59:36;18.50;97.00
10030;DHT22;5055;52.054;8.524;2023-05-23T14:02:05;18.80;97.00
10030;DHT22;5055;52.054;8.524;2023-05-23T14:04:34;18.90;97.00
10030;DHT22;5055;52.054;8.524;2023-05-23T14:07:03;19.10;97.00
10030;DHT22;5055;52.054;8.524;2023-05-23T14:09:32;19.10;97.00
10030;DHT22;5055;52.054;8.524;2023-05-23T14:12:01;18.90;97.00
10030;DHT22;5055;52.054;8.524;2023-05-23T14:14:31;18.70;97.00
10030;DHT22;5055;52.054;8.524;2023-05-23T14:17:00;18.60;97.00
10030;DHT22;5055;52.054;8.524;2023-05-23T14:19:29;18.50;97.00
10030;DHT22;5055;52.054;8.524;2023-05-23T14:21:58;18.30;97.00
10030;DHT22;5055;52.054;8.524;2023-05-23T14:24:27;18.10;97.00
10030;DHT22;5055;52.054;8.524;2023-05-23T14:26:57;18.00;97.00
10030;DHT22;5055;52.054;8.524;2023-05-23T14:29:25;17.90;97.00
10030;DHT22;5055;52.054;8.524;2023-05-23T14:31:55;17.90;97.00
10030;DHT22;5055;52.054;8.524;2023-05-23T14:34:26;17.90;97.00
10030;DHT22;5055;52.054;8.524;2023-05-23T14:36:54;17.90;97.00
10030;DHT22;5055;52.054;8.524;2023-05-23T14:39:23;17.90;97.00
10030;DHT22;5055;52.054;8.524;2023-05-23T14:41:52;18.00;97.00
10030;DHT22;5055;52.054;8.524;2023-05-23T14:44:20;18.30;97.00
10030;DHT22;5055;52.054;8.524;2023-05-23T14:46:49;18.20;97.00
10030;DHT22;5055;52.054;8.524;2023-05-23T14:49:20;17.90;97.00
10030;DHT22;5055;52.054;8.524;2023-05-23T14:51:48;17.50;97.00
10030;DHT22;5055;52.054;8.524;2023-05-23T14:54:18;17.30;97.00
10030;DHT22;5055;52.054;8.524;2023-05-23T14:56:47;17.20;97.00
10030;DHT22;5055;52.054;8.524;2023-05-23T14:59:19;17.10;97.00
10030;DHT22;5055;52.054;8.524;2023-05-23T15:01:49;17.20;97.00
10030;DHT22;5055;52.054;8.524;2023-05-23T15:04:20;17.10;97.00
10030;DHT22;5055;52.054;8.524;2023-05-23T15:06:48;17.00;97.00
10030;DHT22;5055;52.054;8.524;2023-05-23T15:09:18;16.90;97.00
10030;DHT22;5055;52.054;8.524;2023-05-23T15:11:49;16.70;97.00
10030;DHT22;5055;52.054;8.524;2023-05-23T15:14:17;16.50;97.00
10030;DHT22;5055;52.054;8.524;2023-05-23T15:16:47;16.40;97.00
10030;DHT22;5055;52.054;8.524;2023-05-23T15:19:16;16.20;97.00
10030;DHT22;5055;52.054;8.524;2023-05-23T15:21:46;16.20;97.00
10030;DHT22;5055;52.054;8.524;2023-05-23T15:24:17;16.20;97.00
10030;DHT22;5055;52.054;8.524;2023-05-23T15:26:46;16.30;97.00
10030;DHT22;5055;52.054;8.524;2023-05-23T15:29:16;16.50;97.00
10030;DHT22;5055;52.054;8.524;2023-05-23T15:31:45;16.90;97.00
10030;DHT22;5055;52.054;8.524;2023-05-23T15:34:14;17.20;97.00
10030;DHT22;5055;52.054;8.524;2023-05-23T15:36:47;17.20;97.00
10030;DHT22;5055;52.054;8.524;2023-05-23T15:39:17;17.20;97.00
10030;DHT22;5055;52.054;8.524;2023-05-23T15:41:47;17.20;97.00
10030;DHT22;5055;52.054;8.524;2023-05-23T15:44:16;17.00;97.00
10030;DHT22;5055;52.054;8.524;2023-05-23T15:46:49;16.80;97.00
10030;DHT22;5055;52.054;8.524;2023-05-23T15:49:19;16.80;97.00
10030;DHT22;5055;52.054;8.524;2023-05-23T15:51:54;16.60;97.00
10030;DHT22;5055;52.054;8.524;2023-05-23T15:54:24;16.60;97.00
10030;DHT22;5055;52.054;8.524;2023-05-23T15:56:54;16.60;97.00
10030;DHT22;5055;52.054;8.524;2023-05-23T15:59:27;16.60;97.00
10030;DHT22;5055;52.054;8.524;2023-05-23T16:02:02;16.50;97.00
10030;DHT22;5055;52.054;8.524;2023-05-23T16:04:46;16.40;97.00
10030;DHT22;5055;52.054;8.524;2023-05-23T16:07:42;16.40;97.00
10030;DHT22;5055;52.054;8.524;2023-05-23T16:10:48;16.40;97.00
10030;DHT22;5055;52.054;8.524;2023-05-23T16:14:04;16.30;97.00
10030;DHT22;5055;52.054;8.524;2023-05-23T16:17:00;16.10;97.00
10030;DHT22;5055;52.054;8.524;2023-05-23T16:23:06;15.80;97.00
10030;DHT22;5055;52.054;8.524;2023-05-23T16:26:15;15.60;97.00
10030;DHT22;5055;52.054;8.524;2023-05-23T16:29:08;15.70;97.00
10030;DHT22;5055;52.054;8.524;2023-05-23T16:31:55;15.80;97.00
10030;DHT22;5055;52.054;8.524;2023-05-23T16:34:55;16.00;97.00
10030;DHT22;5055;52.054;8.524;2023-05-23T16:37:37;15.90;97.00
10030;DHT22;5055;52.054;8.524;2023-05-23T16:40:19;16.00;97.00
10030;DHT22;5055;52.054;8.524;2023-05-23T16:43:21;16.10;97.00
10030;DHT22;5055;52.054;8.524;2023-05-23T16:46:14;16.20;97.00
10030;DHT22;5055;52.054;8.524;2023-05-23T16:49:11;16.30;97.00
10030;DHT22;5055;52.054;8.524;2023-05-23T16:52:15;16.40;97.00
10030;DHT22;5055;52.054;8.524;2023-05-23T16:55:24;16.50;97.00
10030;DHT22;5055;52.054;8.524;2023-05-23T16:58:21;16.60;97.00
10030;DHT22;5055;52.054;8.524;2023-05-23T17:05:00;16.50;97.00
10030;DHT22;5055;52.054;8.524;2023-05-23T17:07:51;16.40;97.00
10030;DHT22;5055;52.054;8.524;2023-05-23T17:10:42;16.40;97.00
10030;DHT22;5055;52.054;8.524;2023-05-23T17:13:26;16.30;97.00
10030;DHT22;5055;52.054;8.524;2023-05-23T17:16:19;16.30;97.00
10030;DHT22;5055;52.054;8.524;2023-05-23T17:19:29;16.10;97.00
10030;DHT22;5055;52.054;8.524;2023-05-23T17:22:22;16.10;97.00
10030;DHT22;5055;52.054;8.524;2023-05-23T17:25:28;16.20;97.00
10030;DHT22;5055;52.054;8.524;2023-05-23T17:28:36;16.20;97.00
10030;DHT22;5055;52.054;8.524;2023-05-23T17:31:12;16.10;97.00
10030;DHT22;5055;52.054;8.524;2023-05-23T17:34:04;16.00;97.00
10030;DHT22;5055;52.054;8.524;2023-05-23T17:37:02;15.90;97.00
10030;DHT22;5055;52.054;8.524;2023-05-23T17:39:57;15.90;97.00
10030;DHT22;5055;52.054;8.524;2023-05-23T17:43:09;15.80;97.00
10030;DHT22;5055;52.054;8.524;2023-05-23T17:46:04;15.70;97.00
10030;DHT22;5055;52.054;8.524;2023-05-23T17:49:01;15.50;97.00
10030;DHT22;5055;52.054;8.524;2023-05-23T17:52:09;15.50;97.00
10030;DHT22;5055;52.054;8.524;2023-05-23T17:55:04;15.30;97.00
10030;DHT22;5055;52.054;8.524;2023-05-23T17:58:00;15.20;97.00
10030;DHT22;5055;52.054;8.524;2023-05-23T18:00:45;15.10;97.00
10030;DHT22;5055;52.054;8.524;2023-05-23T18:03:30;15.00;97.00
10030;DHT22;5055;52.054;8.524;2023-05-23T18:06:15;14.90;97.00
10030;DHT22;5055;52.054;8.524;2023-05-23T18:08:56;14.70;97.00
10030;DHT22;5055;52.054;8.524;2023-05-23T18:11:52;14.60;97.00
10030;DHT22;5055;52.054;8.524;2023-05-23T18:14:44;14.40;97.00
10030;DHT22;5055;52.054;8.524;2023-05-23T18:17:42;14.20;97.00
10030;DHT22;5055;52.054;8.524;2023-05-23T18:20:47;14.00;97.00
10030;DHT22;5055;52.054;8.524;2023-05-23T18:23:34;13.90;97.00
10030;DHT22;5055;52.054;8.524;2023-05-23T18:26:39;13.80;97.00
10030;DHT22;5055;52.054;8.524;2023-05-23T18:29:46;13.60;97.00
10030;DHT22;5055;52.054;8.524;2023-05-23T18:32:39;13.50;97.00
10030;DHT22;5055;52.054;8.524;2023-05-23T18:35:42;13.50;97.00
10030;DHT22;5055;52.054;8.524;2023-05-23T18:38:34;13.40;97.00
10030;DHT22;5055;52.054;8.524;2023-05-23T18:41:34;13.30;97.00
10030;DHT22;5055;52.054;8.524;2023-05-23T18:44:21;13.20;97.00
10030;DHT22;5055;52.054;8.524;2023-05-23T18:47:08;13.10;97.00
10030;DHT22;5055;52.054;8.524;2023-05-23T18:50:17;13.00;97.00
10030;DHT22;5055;52.054;8.524;2023-05-23T18:53:02;12.90;97.00